sensor_id;sensor_type;location;lat;lon;timestamp;P1;durP1;ratioP1;P2;durP2;ratioP2
23258;SDS011;11798;51.528;7.240;2023-07-28T00:00:06;11.27;;;9.13;;
23258;SDS011;11798;51.528;7.240;2023-07-28T00:02:33;11.73;;;9.50;;
23258;SDS011;11798;51.528;7.240;2023-07-28T00:04:58;11.67;;;10.33;;
23258;SDS011;11798;51.528;7.240;2023-07-28T00:07:24;13.27;;;9.83;;
23258;SDS011;11798;51.528;7.240;2023-07-28T00:09:50;12.83;;;10.63;;
23258;SDS011;11798;51.528;7.240;2023-07-28T00:12:15;11.77;;;10.10;;
23258;SDS011;11798;51.528;7.240;2023-07-28T00:14:41;11.20;;;9.83;;
23258;SDS011;11798;51.528;7.240;2023-07-28T00:17:06;10.23;;;9.13;;
23258;SDS011;11798;51.528;7.240;2023-07-28T00:19:32;12.03;;;10.10;;
23258;SDS011;11798;51.528;7.240;2023-07-28T00:21:58;12.53;;;10.37;;
23258;SDS011;11798;51.528;7.240;2023-07-28T00:24:23;12.27;;;10.97;;
23258;SDS011;11798;51.528;7.240;2023-07-28T00:26:49;14.03;;;11.63;;
23258;SDS011;11798;51.528;7.240;2023-07-28T00:29:15;13.27;;;11.77;;
23258;SDS011;11798;51.528;7.240;2023-07-28T00:31:40;12.33;;;10.50;;
23258;SDS011;11798;51.528;7.240;2023-07-28T00:34:06;13.53;;;12.13;;
23258;SDS011;11798;51.528;7.240;2023-07-28T00:36:32;13.97;;;12.23;;
23258;SDS011;11798;51.528;7.240;2023-07-28T00:38:57;13.80;;;12.43;;
23258;SDS011;11798;51.528;7.240;2023-07-28T00:41:23;15.03;;;12.10;;
23258;SDS011;11798;51.528;7.240;2023-07-28T00:43:49;13.40;;;12.00;;
23258;SDS011;11798;51.528;7.240;2023-07-28T00:46:15;16.17;;;13.73;;
23258;SDS011;11798;51.528;7.240;2023-07-28T00:48:41;14.83;;;13.33;;
23258;SDS011;11798;51.528;7.240;2023-07-28T00:51:08;15.53;;;13.07;;
23258;SDS011;11798;51.528;7.240;2023-07-28T00:53:34;14.50;;;12.67;;
23258;SDS011;11798;51.528;7.240;2023-07-28T00:56:00;15.83;;;12.77;;
23258;SDS011;11798;51.528;7.240;2023-07-28T00:58:27;14.90;;;12.73;;
23258;SDS011;11798;51.528;7.240;2023-07-28T01:00:53;16.10;;;13.73;;
23258;SDS011;11798;51.528;7.240;2023-07-28T01:03:18;14.87;;;13.03;;
23258;SDS011;11798;51.528;7.240;2023-07-28T01:08:46;13.33;;;11.00;;
23258;SDS011;11798;51.528;7.240;2023-07-28T01:11:22;12.93;;;11.07;;
23258;SDS011;11798;51.528;7.240;2023-07-28T01:13:48;14.30;;;11.10;;
23258;SDS011;11798;51.528;7.240;2023-07-28T01:16:13;12.40;;;10.23;;
23258;SDS011;11798;51.528;7.240;2023-07-28T01:18:39;12.57;;;10.27;;
23258;SDS011;11798;51.528;7.240;2023-07-28T01:21:07;11.07;;;8.93;;
23258;SDS011;11798;51.528;7.240;2023-07-28T01:26:36;8.17;;;7.27;;
23258;SDS011;11798;51.528;7.240;2023-07-28T01:29:02;8.23;;;7.03;;
23258;SDS011;11798;51.528;7.240;2023-07-28T01:31:29;11.53;;;7.13;;
23258;SDS011;11798;51.528;7.240;2023-07-28T01:33:54;8.17;;;6.33;;
23258;SDS011;11798;51.528;7.240;2023-07-28T01:36:20;9.50;;;7.50;;
23258;SDS011;11798;51.528;7.240;2023-07-28T01:38:46;7.90;;;7.03;;
23258;SDS011;11798;51.528;7.240;2023-07-28T01:41:11;10.67;;;7.57;;
23258;SDS011;11798;51.528;7.240;2023-07-28T01:43:37;8.80;;;7.33;;
23258;SDS011;11798;51.528;7.240;2023-07-28T01:46:03;13.67;;;7.00;;
23258;SDS011;11798;51.528;7.240;2023-07-28T01:48:29;8.50;;;6.47;;
23258;SDS011;11798;51.528;7.240;2023-07-28T01:50:54;9.63;;;6.73;;
23258;SDS011;11798;51.528;7.240;2023-07-28T01:53:20;7.63;;;6.20;;
23258;SDS011;11798;51.528;7.240;2023-07-28T01:55:46;8.73;;;6.60;;
23258;SDS011;11798;51.528;7.240;2023-07-28T01:58:11;6.93;;;5.87;;
23258;SDS011;11798;51.528;7.240;2023-07-28T02:00:37;9.97;;;6.33;;
23258;SDS011;11798;51.528;7.240;2023-07-28T02:03:03;8.47;;;6.37;;
23258;SDS011;11798;51.528;7.240;2023-07-28T02:05:29;6.87;;;5.90;;
23258;SDS011;11798;51.528;7.240;2023-07-28T02:07:55;6.57;;;5.67;;
23258;SDS011;11798;51.528;7.240;2023-07-28T02:10:26;7.93;;;6.50;;
23258;SDS011;11798;51.528;7.240;2023-07-28T02:12:52;9.00;;;5.47;;
23258;SDS011;11798;51.528;7.240;2023-07-28T02:15:17;6.00;;;5.40;;
23258;SDS011;11798;51.528;7.240;2023-07-28T02:17:43;8.10;;;5.57;;
23258;SDS011;11798;51.528;7.240;2023-07-28T02:20:09;8.00;;;6.00;;
23258;SDS011;11798;51.528;7.240;2023-07-28T02:22:38;9.20;;;6.10;;
23258;SDS011;11798;51.528;7.240;2023-07-28T02:25:07;8.10;;;6.00;;
23258;SDS011;11798;51.528;7.240;2023-07-28T02:27:33;9.23;;;6.80;;
23258;SDS011;11798;51.528;7.240;2023-07-28T02:29:59;7.80;;;6.07;;
23258;SDS011;11798;51.528;7.240;2023-07-28T02:32:25;7.80;;;5.93;;
23258;SDS011;11798;51.528;7.240;2023-07-28T02:34:51;7.67;;;5.57;;
23258;SDS011;11798;51.528;7.240;2023-07-28T02:37:17;8.70;;;6.10;;
23258;SDS011;11798;51.528;7.240;2023-07-28T02:39:42;7.57;;;6.00;;
23258;SDS011;11798;51.528;7.240;2023-07-28T02:42:08;10.23;;;6.40;;
23258;SDS011;11798;51.528;7.240;2023-07-28T02:44:34;7.70;;;5.63;;
23258;SDS011;11798;51.528;7.240;2023-07-28T02:46:59;6.43;;;5.17;;
23258;SDS011;11798;51.528;7.240;2023-07-28T02:49:25;7.47;;;5.70;;
23258;SDS011;11798;51.528;7.240;2023-07-28T02:51:51;7.03;;;5.67;;
23258;SDS011;11798;51.528;7.240;2023-07-28T02:54:16;6.90;;;5.13;;
23258;SDS011;11798;51.528;7.240;2023-07-28T02:56:42;6.13;;;5.53;;
23258;SDS011;11798;51.528;7.240;2023-07-28T02:59:07;8.20;;;6.13;;
23258;SDS011;11798;51.528;7.240;2023-07-28T03:01:33;8.20;;;5.47;;
23258;SDS011;11798;51.528;7.240;2023-07-28T03:04:01;7.63;;;5.57;;
23258;SDS011;11798;51.528;7.240;2023-07-28T03:06:28;7.97;;;6.37;;
23258;SDS011;11798;51.528;7.240;2023-07-28T03:08:53;7.40;;;5.90;;
23258;SDS011;11798;51.528;7.240;2023-07-28T03:11:19;11.03;;;6.03;;
23258;SDS011;11798;51.528;7.240;2023-07-28T03:13:45;9.33;;;5.43;;
23258;SDS011;11798;51.528;7.240;2023-07-28T03:16:11;5.97;;;4.83;;
23258;SDS011;11798;51.528;7.240;2023-07-28T03:18:37;6.57;;;5.20;;
23258;SDS011;11798;51.528;7.240;2023-07-28T03:21:02;7.73;;;6.33;;
23258;SDS011;11798;51.528;7.240;2023-07-28T03:23:28;6.63;;;5.73;;
23258;SDS011;11798;51.528;7.240;2023-07-28T03:25:54;8.23;;;5.73;;
23258;SDS011;11798;51.528;7.240;2023-07-28T03:28:19;9.70;;;6.10;;
23258;SDS011;11798;51.528;7.240;2023-07-28T03:30:45;8.63;;;6.20;;
23258;SDS011;11798;51.528;7.240;2023-07-28T03:33:11;9.00;;;6.60;;
23258;SDS011;11798;51.528;7.240;2023-07-28T03:35:37;8.90;;;6.80;;
23258;SDS011;11798;51.528;7.240;2023-07-28T03:38:02;10.60;;;7.40;;
23258;SDS011;11798;51.528;7.240;2023-07-28T03:40:28;8.87;;;7.03;;
23258;SDS011;11798;51.528;7.240;2023-07-28T03:42:53;14.03;;;8.40;;
23258;SDS011;11798;51.528;7.240;2023-07-28T03:45:19;8.60;;;7.30;;
23258;SDS011;11798;51.528;7.240;2023-07-28T03:47:45;10.93;;;7.97;;
23258;SDS011;11798;51.528;7.240;2023-07-28T03:50:10;12.47;;;9.10;;
23258;SDS011;11798;51.528;7.240;2023-07-28T03:52:36;11.93;;;8.57;;
23258;SDS011;11798;51.528;7.240;2023-07-28T03:55:02;11.17;;;8.83;;
23258;SDS011;11798;51.528;7.240;2023-07-28T03:57:28;12.27;;;8.40;;
23258;SDS011;11798;51.528;7.240;2023-07-28T03:59:53;12.20;;;9.20;;
23258;SDS011;11798;51.528;7.240;2023-07-28T04:02:19;11.30;;;8.37;;
23258;SDS011;11798;51.528;7.240;2023-07-28T04:04:44;12.47;;;8.63;;
23258;SDS011;11798;51.528;7.240;2023-07-28T04:07:10;10.73;;;8.07;;
23258;SDS011;11798;51.528;7.240;2023-07-28T04:09:35;12.20;;;8.13;;
23258;SDS011;11798;51.528;7.240;2023-07-28T04:12:01;9.80;;;7.63;;
23258;SDS011;11798;51.528;7.240;2023-07-28T04:14:27;11.23;;;7.07;;
23258;SDS011;11798;51.528;7.240;2023-07-28T04:16:52;8.83;;;6.77;;
23258;SDS011;11798;51.528;7.240;2023-07-28T04:19:18;7.80;;;7.00;;
23258;SDS011;11798;51.528;7.240;2023-07-28T04:21:43;8.63;;;6.60;;
23258;SDS011;11798;51.528;7.240;2023-07-28T04:24:10;8.20;;;6.70;;
23258;SDS011;11798;51.528;7.240;2023-07-28T04:26:36;8.60;;;6.83;;
23258;SDS011;11798;51.528;7.240;2023-07-28T04:29:02;8.73;;;6.63;;
23258;SDS011;11798;51.528;7.240;2023-07-28T04:31:27;8.20;;;6.33;;
23258;SDS011;11798;51.528;7.240;2023-07-28T04:33:53;6.60;;;5.90;;
23258;SDS011;11798;51.528;7.240;2023-07-28T04:36:18;6.57;;;5.87;;
23258;SDS011;11798;51.528;7.240;2023-07-28T04:38:44;9.13;;;5.93;;
23258;SDS011;11798;51.528;7.240;2023-07-28T04:41:10;8.37;;;5.87;;
23258;SDS011;11798;51.528;7.240;2023-07-28T04:43:35;7.60;;;5.83;;
23258;SDS011;11798;51.528;7.240;2023-07-28T04:46:01;6.77;;;5.40;;
23258;SDS011;11798;51.528;7.240;2023-07-28T04:48:26;7.60;;;5.67;;
23258;SDS011;11798;51.528;7.240;2023-07-28T04:50:52;7.00;;;5.17;;
23258;SDS011;11798;51.528;7.240;2023-07-28T04:53:18;6.90;;;5.80;;
23258;SDS011;11798;51.528;7.240;2023-07-28T04:55:44;9.10;;;5.70;;
23258;SDS011;11798;51.528;7.240;2023-07-28T04:58:10;8.00;;;5.93;;
23258;SDS011;11798;51.528;7.240;2023-07-28T05:00:35;6.10;;;5.10;;
23258;SDS011;11798;51.528;7.240;2023-07-28T05:03:01;5.83;;;5.10;;
23258;SDS011;11798;51.528;7.240;2023-07-28T05:05:28;7.87;;;5.27;;
23258;SDS011;11798;51.528;7.240;2023-07-28T05:07:54;6.40;;;5.43;;
23258;SDS011;11798;51.528;7.240;2023-07-28T05:10:20;5.57;;;4.30;;
23258;SDS011;11798;51.528;7.240;2023-07-28T05:12:45;4.93;;;4.17;;
23258;SDS011;11798;51.528;7.240;2023-07-28T05:15:11;5.00;;;4.10;;
23258;SDS011;11798;51.528;7.240;2023-07-28T05:17:38;6.17;;;4.93;;
23258;SDS011;11798;51.528;7.240;2023-07-28T05:20:04;6.87;;;4.80;;
23258;SDS011;11798;51.528;7.240;2023-07-28T05:22:30;6.57;;;5.23;;
23258;SDS011;11798;51.528;7.240;2023-07-28T05:24:55;7.77;;;4.97;;
23258;SDS011;11798;51.528;7.240;2023-07-28T05:27:22;5.30;;;4.77;;
23258;SDS011;11798;51.528;7.240;2023-07-28T05:29:48;5.83;;;4.90;;
23258;SDS011;11798;51.528;7.240;2023-07-28T05:32:13;6.07;;;4.70;;
23258;SDS011;11798;51.528;7.240;2023-07-28T05:34:41;5.40;;;4.30;;
23258;SDS011;11798;51.528;7.240;2023-07-28T05:37:08;5.67;;;4.47;;
23258;SDS011;11798;51.528;7.240;2023-07-28T05:39:33;4.93;;;4.00;;
23258;SDS011;11798;51.528;7.240;2023-07-28T05:41:59;6.33;;;4.90;;
23258;SDS011;11798;51.528;7.240;2023-07-28T05:44:25;5.60;;;4.10;;
23258;SDS011;11798;51.528;7.240;2023-07-28T05:46:50;5.10;;;4.30;;
23258;SDS011;11798;51.528;7.240;2023-07-28T05:49:16;5.40;;;4.50;;
23258;SDS011;11798;51.528;7.240;2023-07-28T05:51:41;5.97;;;4.00;;
23258;SDS011;11798;51.528;7.240;2023-07-28T05:54:07;5.03;;;4.40;;
23258;SDS011;11798;51.528;7.240;2023-07-28T05:56:32;4.23;;;3.83;;
23258;SDS011;11798;51.528;7.240;2023-07-28T05:58:58;4.50;;;3.97;;
23258;SDS011;11798;51.528;7.240;2023-07-28T06:01:24;4.67;;;3.83;;
23258;SDS011;11798;51.528;7.240;2023-07-28T06:03:52;3.83;;;3.43;;
23258;SDS011;11798;51.528;7.240;2023-07-28T06:06:20;6.13;;;4.63;;
23258;SDS011;11798;51.528;7.240;2023-07-28T06:08:47;6.50;;;5.00;;
23258;SDS011;11798;51.528;7.240;2023-07-28T06:11:12;5.13;;;4.43;;
23258;SDS011;11798;51.528;7.240;2023-07-28T06:13:38;7.13;;;5.87;;
23258;SDS011;11798;51.528;7.240;2023-07-28T06:16:03;7.13;;;6.10;;
23258;SDS011;11798;51.528;7.240;2023-07-28T06:18:29;8.10;;;6.83;;
23258;SDS011;11798;51.528;7.240;2023-07-28T06:20:54;7.53;;;6.40;;
23258;SDS011;11798;51.528;7.240;2023-07-28T06:23:20;6.70;;;5.77;;
23258;SDS011;11798;51.528;7.240;2023-07-28T06:25:46;8.73;;;5.97;;
23258;SDS011;11798;51.528;7.240;2023-07-28T06:28:12;9.43;;;7.00;;
23258;SDS011;11798;51.528;7.240;2023-07-28T06:30:38;8.47;;;6.57;;
23258;SDS011;11798;51.528;7.240;2023-07-28T06:33:07;9.33;;;6.13;;
23258;SDS011;11798;51.528;7.240;2023-07-28T06:35:33;7.63;;;6.43;;
23258;SDS011;11798;51.528;7.240;2023-07-28T06:37:59;9.07;;;7.03;;
23258;SDS011;11798;51.528;7.240;2023-07-28T06:40:25;8.53;;;7.63;;
23258;SDS011;11798;51.528;7.240;2023-07-28T06:42:51;8.13;;;6.97;;
23258;SDS011;11798;51.528;7.240;2023-07-28T06:45:16;9.73;;;8.17;;
23258;SDS011;11798;51.528;7.240;2023-07-28T06:47:42;9.93;;;7.53;;
23258;SDS011;11798;51.528;7.240;2023-07-28T06:50:10;10.30;;;6.90;;
23258;SDS011;11798;51.528;7.240;2023-07-28T06:52:36;8.23;;;7.43;;
23258;SDS011;11798;51.528;7.240;2023-07-28T06:55:02;11.37;;;7.77;;
23258;SDS011;11798;51.528;7.240;2023-07-28T06:57:28;8.97;;;7.20;;
23258;SDS011;11798;51.528;7.240;2023-07-28T06:59:55;8.77;;;7.87;;
23258;SDS011;11798;51.528;7.240;2023-07-28T07:02:21;8.87;;;6.97;;
23258;SDS011;11798;51.528;7.240;2023-07-28T07:04:47;8.10;;;6.67;;
23258;SDS011;11798;51.528;7.240;2023-07-28T07:07:12;7.90;;;6.87;;
23258;SDS011;11798;51.528;7.240;2023-07-28T07:09:38;8.43;;;7.37;;
23258;SDS011;11798;51.528;7.240;2023-07-28T07:12:04;8.70;;;7.43;;
23258;SDS011;11798;51.528;7.240;2023-07-28T07:14:29;9.00;;;7.70;;
23258;SDS011;11798;51.528;7.240;2023-07-28T07:16:55;8.90;;;7.93;;
23258;SDS011;11798;51.528;7.240;2023-07-28T07:19:20;7.97;;;7.17;;
23258;SDS011;11798;51.528;7.240;2023-07-28T07:21:46;7.77;;;7.03;;
23258;SDS011;11798;51.528;7.240;2023-07-28T07:24:14;8.67;;;6.47;;
23258;SDS011;11798;51.528;7.240;2023-07-28T07:26:40;9.07;;;6.90;;
23258;SDS011;11798;51.528;7.240;2023-07-28T07:29:06;6.97;;;6.17;;
23258;SDS011;11798;51.528;7.240;2023-07-28T07:31:33;7.20;;;6.50;;
23258;SDS011;11798;51.528;7.240;2023-07-28T07:33:59;8.93;;;7.70;;
23258;SDS011;11798;51.528;7.240;2023-07-28T07:36:25;8.63;;;7.77;;
23258;SDS011;11798;51.528;7.240;2023-07-28T07:38:50;8.67;;;7.47;;
23258;SDS011;11798;51.528;7.240;2023-07-28T07:41:16;7.93;;;7.13;;
23258;SDS011;11798;51.528;7.240;2023-07-28T07:43:44;9.50;;;7.77;;
23258;SDS011;11798;51.528;7.240;2023-07-28T07:46:10;9.17;;;8.07;;
23258;SDS011;11798;51.528;7.240;2023-07-28T07:48:36;7.87;;;7.10;;
23258;SDS011;11798;51.528;7.240;2023-07-28T07:51:01;8.73;;;7.83;;
23258;SDS011;11798;51.528;7.240;2023-07-28T07:53:27;9.20;;;8.30;;
23258;SDS011;11798;51.528;7.240;2023-07-28T07:55:53;10.13;;;9.10;;
23258;SDS011;11798;51.528;7.240;2023-07-28T07:58:18;8.33;;;7.53;;
23258;SDS011;11798;51.528;7.240;2023-07-28T08:00:44;9.87;;;8.50;;
23258;SDS011;11798;51.528;7.240;2023-07-28T08:03:09;10.00;;;9.10;;
23258;SDS011;11798;51.528;7.240;2023-07-28T08:05:35;10.00;;;9.00;;
23258;SDS011;11798;51.528;7.240;2023-07-28T08:08:01;9.67;;;8.73;;
23258;SDS011;11798;51.528;7.240;2023-07-28T08:10:27;9.73;;;8.83;;
23258;SDS011;11798;51.528;7.240;2023-07-28T08:12:53;9.77;;;8.77;;
23258;SDS011;11798;51.528;7.240;2023-07-28T08:15:19;11.23;;;9.50;;
23258;SDS011;11798;51.528;7.240;2023-07-28T08:17:45;9.70;;;8.77;;
23258;SDS011;11798;51.528;7.240;2023-07-28T08:20:11;8.65;;;7.75;;
23258;SDS011;11798;51.528;7.240;2023-07-28T08:22:37;8.43;;;7.63;;
23258;SDS011;11798;51.528;7.240;2023-07-28T08:25:03;8.07;;;7.27;;
23258;SDS011;11798;51.528;7.240;2023-07-28T08:27:29;8.05;;;7.25;;
23258;SDS011;11798;51.528;7.240;2023-07-28T08:29:55;8.02;;;7.32;;
23258;SDS011;11798;51.528;7.240;2023-07-28T08:32:21;10.38;;;9.27;;
23258;SDS011;11798;51.528;7.240;2023-07-28T08:34:47;9.18;;;8.18;;
23258;SDS011;11798;51.528;7.240;2023-07-28T08:37:13;9.48;;;8.57;;
23258;SDS011;11798;51.528;7.240;2023-07-28T08:39:38;10.10;;;9.20;;
23258;SDS011;11798;51.528;7.240;2023-07-28T08:42:04;9.48;;;8.55;;
23258;SDS011;11798;51.528;7.240;2023-07-28T08:44:34;10.63;;;9.65;;
23258;SDS011;11798;51.528;7.240;2023-07-28T08:47:03;11.10;;;10.00;;
23258;SDS011;11798;51.528;7.240;2023-07-28T08:49:33;12.75;;;11.52;;
23258;SDS011;11798;51.528;7.240;2023-07-28T08:52:01;13.10;;;11.80;;
23258;SDS011;11798;51.528;7.240;2023-07-28T08:54:28;14.25;;;12.85;;
23258;SDS011;11798;51.528;7.240;2023-07-28T08:56:54;13.00;;;11.77;;
23258;SDS011;11798;51.528;7.240;2023-07-28T08:59:23;13.27;;;11.13;;
23258;SDS011;11798;51.528;7.240;2023-07-28T09:01:50;12.18;;;11.07;;
23258;SDS011;11798;51.528;7.240;2023-07-28T09:04:20;12.55;;;11.27;;
23258;SDS011;11798;51.528;7.240;2023-07-28T09:06:47;13.95;;;12.65;;
23258;SDS011;11798;51.528;7.240;2023-07-28T09:09:14;12.70;;;11.32;;
23258;SDS011;11798;51.528;7.240;2023-07-28T09:11:44;14.15;;;12.85;;
23258;SDS011;11798;51.528;7.240;2023-07-28T09:14:15;12.60;;;11.27;;
23258;SDS011;11798;51.528;7.240;2023-07-28T09:16:44;13.85;;;12.45;;
23258;SDS011;11798;51.528;7.240;2023-07-28T09:19:11;14.15;;;12.93;;
23258;SDS011;11798;51.528;7.240;2023-07-28T09:21:37;13.63;;;12.32;;
23258;SDS011;11798;51.528;7.240;2023-07-28T09:24:11;13.88;;;12.45;;
23258;SDS011;11798;51.528;7.240;2023-07-28T09:26:41;13.70;;;12.50;;
23258;SDS011;11798;51.528;7.240;2023-07-28T09:29:17;12.55;;;11.40;;
23258;SDS011;11798;51.528;7.240;2023-07-28T09:31:47;12.23;;;11.15;;
23258;SDS011;11798;51.528;7.240;2023-07-28T09:34:27;13.40;;;12.10;;
23258;SDS011;11798;51.528;7.240;2023-07-28T09:36:54;13.55;;;12.15;;
23258;SDS011;11798;51.528;7.240;2023-07-28T09:39:21;9.40;;;8.48;;
23258;SDS011;11798;51.528;7.240;2023-07-28T09:41:47;8.02;;;7.28;;
23258;SDS011;11798;51.528;7.240;2023-07-28T09:44:13;6.32;;;5.72;;
23258;SDS011;11798;51.528;7.240;2023-07-28T09:46:49;6.20;;;5.28;;
23258;SDS011;11798;51.528;7.240;2023-07-28T09:49:20;5.47;;;4.82;;
23258;SDS011;11798;51.528;7.240;2023-07-28T09:51:49;5.05;;;4.57;;
23258;SDS011;11798;51.528;7.240;2023-07-28T09:54:23;5.78;;;4.20;;
23258;SDS011;11798;51.528;7.240;2023-07-28T09:56:57;5.07;;;3.80;;
23258;SDS011;11798;51.528;7.240;2023-07-28T09:59:35;4.57;;;3.65;;
23258;SDS011;11798;51.528;7.240;2023-07-28T10:02:03;3.88;;;3.53;;
23258;SDS011;11798;51.528;7.240;2023-07-28T10:04:30;5.68;;;5.18;;
23258;SDS011;11798;51.528;7.240;2023-07-28T10:06:57;7.25;;;6.55;;
23258;SDS011;11798;51.528;7.240;2023-07-28T10:09:26;7.72;;;6.97;;
23258;SDS011;11798;51.528;7.240;2023-07-28T10:11:53;8.20;;;7.40;;
23258;SDS011;11798;51.528;7.240;2023-07-28T10:14:35;6.97;;;6.35;;
23258;SDS011;11798;51.528;7.240;2023-07-28T10:17:02;7.55;;;6.10;;
23258;SDS011;11798;51.528;7.240;2023-07-28T10:19:29;7.57;;;6.80;;
23258;SDS011;11798;51.528;7.240;2023-07-28T10:22:08;10.98;;;9.88;;
23258;SDS011;11798;51.528;7.240;2023-07-28T10:24:51;12.18;;;10.98;;
23258;SDS011;11798;51.528;7.240;2023-07-28T10:27:31;10.95;;;9.77;;
23258;SDS011;11798;51.528;7.240;2023-07-28T10:30:00;10.90;;;9.55;;
23258;SDS011;11798;51.528;7.240;2023-07-28T10:32:34;10.30;;;9.15;;
23258;SDS011;11798;51.528;7.240;2023-07-28T10:37:37;10.05;;;9.15;;
23258;SDS011;11798;51.528;7.240;2023-07-28T10:42:55;9.88;;;8.90;;
23258;SDS011;11798;51.528;7.240;2023-07-28T10:45:24;9.85;;;9.00;;
23258;SDS011;11798;51.528;7.240;2023-07-28T10:47:52;9.65;;;8.75;;
23258;SDS011;11798;51.528;7.240;2023-07-28T10:50:20;9.30;;;8.50;;
23258;SDS011;11798;51.528;7.240;2023-07-28T10:52:47;9.82;;;8.93;;
23258;SDS011;11798;51.528;7.240;2023-07-28T10:57:40;10.20;;;9.20;;
23258;SDS011;11798;51.528;7.240;2023-07-28T11:00:07;7.97;;;7.28;;
23258;SDS011;11798;51.528;7.240;2023-07-28T11:02:33;7.90;;;7.20;;
23258;SDS011;11798;51.528;7.240;2023-07-28T11:05:05;7.38;;;6.68;;
23258;SDS011;11798;51.528;7.240;2023-07-28T11:07:32;8.07;;;7.38;;
23258;SDS011;11798;51.528;7.240;2023-07-28T11:09:59;10.45;;;9.45;;
23258;SDS011;11798;51.528;7.240;2023-07-28T11:12:26;12.32;;;10.38;;
23258;SDS011;11798;51.528;7.240;2023-07-28T11:14:52;10.75;;;9.75;;
23258;SDS011;11798;51.528;7.240;2023-07-28T11:17:17;8.32;;;7.53;;
23258;SDS011;11798;51.528;7.240;2023-07-28T11:19:43;7.03;;;6.47;;
23258;SDS011;11798;51.528;7.240;2023-07-28T11:22:09;7.30;;;6.60;;
23258;SDS011;11798;51.528;7.240;2023-07-28T11:24:34;6.68;;;6.07;;
23258;SDS011;11798;51.528;7.240;2023-07-28T11:27:00;6.03;;;5.53;;
23258;SDS011;11798;51.528;7.240;2023-07-28T11:29:27;5.28;;;4.88;;
23258;SDS011;11798;51.528;7.240;2023-07-28T11:31:53;5.25;;;4.75;;
23258;SDS011;11798;51.528;7.240;2023-07-28T11:34:19;5.13;;;4.72;;
23258;SDS011;11798;51.528;7.240;2023-07-28T11:36:44;5.55;;;5.00;;
23258;SDS011;11798;51.528;7.240;2023-07-28T11:39:10;5.22;;;4.82;;
23258;SDS011;11798;51.528;7.240;2023-07-28T11:41:37;6.25;;;5.65;;
23258;SDS011;11798;51.528;7.240;2023-07-28T11:44:04;5.20;;;4.80;;
23258;SDS011;11798;51.528;7.240;2023-07-28T11:46:31;5.93;;;5.50;;
23258;SDS011;11798;51.528;7.240;2023-07-28T11:49:08;7.30;;;6.70;;
23258;SDS011;11798;51.528;7.240;2023-07-28T11:51:47;8.65;;;7.82;;
23258;SDS011;11798;51.528;7.240;2023-07-28T11:54:14;8.20;;;7.50;;
23258;SDS011;11798;51.528;7.240;2023-07-28T11:56:45;8.35;;;7.55;;
23258;SDS011;11798;51.528;7.240;2023-07-28T11:59:11;8.18;;;7.50;;
23258;SDS011;11798;51.528;7.240;2023-07-28T12:04:35;7.65;;;6.93;;
23258;SDS011;11798;51.528;7.240;2023-07-28T12:09:31;7.65;;;6.95;;
23258;SDS011;11798;51.528;7.240;2023-07-28T12:11:58;6.60;;;6.10;;
23258;SDS011;11798;51.528;7.240;2023-07-28T12:14:33;7.20;;;6.60;;
23258;SDS011;11798;51.528;7.240;2023-07-28T12:16:59;7.57;;;6.88;;
23258;SDS011;11798;51.528;7.240;2023-07-28T12:19:26;6.97;;;6.38;;
23258;SDS011;11798;51.528;7.240;2023-07-28T12:21:52;6.03;;;5.63;;
23258;SDS011;11798;51.528;7.240;2023-07-28T12:24:17;6.60;;;6.10;;
23258;SDS011;11798;51.528;7.240;2023-07-28T12:26:45;7.25;;;6.70;;
23258;SDS011;11798;51.528;7.240;2023-07-28T12:29:13;6.70;;;5.93;;
23258;SDS011;11798;51.528;7.240;2023-07-28T12:31:39;5.85;;;5.35;;
23258;SDS011;11798;51.528;7.240;2023-07-28T12:34:04;6.70;;;6.20;;
23258;SDS011;11798;51.528;7.240;2023-07-28T12:36:30;7.68;;;6.97;;
23258;SDS011;11798;51.528;7.240;2023-07-28T12:38:56;6.60;;;6.07;;
23258;SDS011;11798;51.528;7.240;2023-07-28T12:41:22;6.00;;;4.80;;
23258;SDS011;11798;51.528;7.240;2023-07-28T12:43:47;5.95;;;4.78;;
23258;SDS011;11798;51.528;7.240;2023-07-28T12:46:13;3.88;;;3.45;;
23258;SDS011;11798;51.528;7.240;2023-07-28T12:48:38;4.30;;;3.67;;
23258;SDS011;11798;51.528;7.240;2023-07-28T12:51:04;3.90;;;3.40;;
23258;SDS011;11798;51.528;7.240;2023-07-28T12:53:30;3.42;;;3.13;;
23258;SDS011;11798;51.528;7.240;2023-07-28T12:55:55;4.53;;;2.80;;
23258;SDS011;11798;51.528;7.240;2023-07-28T12:58:21;3.58;;;2.70;;
23258;SDS011;11798;51.528;7.240;2023-07-28T13:00:46;3.53;;;2.42;;
23258;SDS011;11798;51.528;7.240;2023-07-28T13:03:12;2.53;;;2.33;;
23258;SDS011;11798;51.528;7.240;2023-07-28T13:05:38;3.20;;;2.33;;
23258;SDS011;11798;51.528;7.240;2023-07-28T13:08:03;2.85;;;1.73;;
23258;SDS011;11798;51.528;7.240;2023-07-28T13:10:29;1.73;;;1.63;;
23258;SDS011;11798;51.528;7.240;2023-07-28T13:12:54;2.47;;;1.80;;
23258;SDS011;11798;51.528;7.240;2023-07-28T13:15:20;1.88;;;1.73;;
23258;SDS011;11798;51.528;7.240;2023-07-28T13:17:45;1.73;;;1.60;;
23258;SDS011;11798;51.528;7.240;2023-07-28T13:20:11;2.60;;;2.00;;
23258;SDS011;11798;51.528;7.240;2023-07-28T13:22:37;1.58;;;1.42;;
23258;SDS011;11798;51.528;7.240;2023-07-28T13:25:02;2.47;;;1.58;;
23258;SDS011;11798;51.528;7.240;2023-07-28T13:27:28;1.58;;;1.38;;
23258;SDS011;11798;51.528;7.240;2023-07-28T13:29:54;2.53;;;1.40;;
23258;SDS011;11798;51.528;7.240;2023-07-28T13:32:23;1.45;;;1.35;;
23258;SDS011;11798;51.528;7.240;2023-07-28T13:34:50;1.67;;;1.10;;
23258;SDS011;11798;51.528;7.240;2023-07-28T13:37:17;2.03;;;1.40;;
23258;SDS011;11798;51.528;7.240;2023-07-28T13:39:43;1.35;;;1.23;;
23258;SDS011;11798;51.528;7.240;2023-07-28T13:42:09;1.98;;;1.42;;
23258;SDS011;11798;51.528;7.240;2023-07-28T13:44:36;2.15;;;1.50;;
23258;SDS011;11798;51.528;7.240;2023-07-28T13:47:02;2.28;;;1.52;;
23258;SDS011;11798;51.528;7.240;2023-07-28T13:49:29;1.58;;;1.40;;
23258;SDS011;11798;51.528;7.240;2023-07-28T13:51:54;1.80;;;1.70;;
23258;SDS011;11798;51.528;7.240;2023-07-28T13:54:20;1.90;;;1.80;;
23258;SDS011;11798;51.528;7.240;2023-07-28T13:56:46;1.77;;;1.67;;
23258;SDS011;11798;51.528;7.240;2023-07-28T13:59:11;2.00;;;1.80;;
23258;SDS011;11798;51.528;7.240;2023-07-28T14:01:37;1.90;;;1.80;;
23258;SDS011;11798;51.528;7.240;2023-07-28T14:04:02;2.03;;;1.92;;
23258;SDS011;11798;51.528;7.240;2023-07-28T14:06:28;2.80;;;2.10;;
23258;SDS011;11798;51.528;7.240;2023-07-28T14:08:54;2.08;;;1.50;;
23258;SDS011;11798;51.528;7.240;2023-07-28T14:11:19;1.40;;;1.30;;
23258;SDS011;11798;51.528;7.240;2023-07-28T14:13:45;2.95;;;1.50;;
23258;SDS011;11798;51.528;7.240;2023-07-28T14:16:11;1.42;;;1.30;;
23258;SDS011;11798;51.528;7.240;2023-07-28T14:18:37;2.40;;;2.00;;
23258;SDS011;11798;51.528;7.240;2023-07-28T14:21:03;3.33;;;2.08;;
23258;SDS011;11798;51.528;7.240;2023-07-28T14:23:28;3.08;;;1.90;;
23258;SDS011;11798;51.528;7.240;2023-07-28T14:25:54;2.15;;;1.95;;
23258;SDS011;11798;51.528;7.240;2023-07-28T14:28:21;2.30;;;1.88;;
23258;SDS011;11798;51.528;7.240;2023-07-28T14:30:47;2.28;;;2.03;;
23258;SDS011;11798;51.528;7.240;2023-07-28T14:33:13;1.83;;;1.67;;
23258;SDS011;11798;51.528;7.240;2023-07-28T14:35:40;2.03;;;1.83;;
23258;SDS011;11798;51.528;7.240;2023-07-28T14:38:06;2.30;;;2.10;;
23258;SDS011;11798;51.528;7.240;2023-07-28T14:40:31;3.25;;;1.77;;
23258;SDS011;11798;51.528;7.240;2023-07-28T14:42:57;2.30;;;1.85;;
23258;SDS011;11798;51.528;7.240;2023-07-28T14:45:23;1.42;;;1.33;;
23258;SDS011;11798;51.528;7.240;2023-07-28T14:47:48;1.88;;;1.40;;
23258;SDS011;11798;51.528;7.240;2023-07-28T14:50:14;1.33;;;1.23;;
23258;SDS011;11798;51.528;7.240;2023-07-28T14:52:39;1.40;;;1.30;;
23258;SDS011;11798;51.528;7.240;2023-07-28T14:55:05;1.30;;;1.20;;
23258;SDS011;11798;51.528;7.240;2023-07-28T14:57:31;2.78;;;1.23;;